createdAt,value
2018-12-14T00:00:30.807Z,310
2018-12-14T00:01:37.997Z,309
2018-12-14T00:02:45.202Z,310
2018-12-14T00:03:52.127Z,310
2018-12-14T00:04:59.368Z,310
2018-12-14T00:06:06.563Z,310
2018-12-14T00:07:13.489Z,310
2018-12-14T00:08:20.684Z,310
2018-12-14T00:09:27.876Z,310
2018-12-14T00:10:34.522Z,310
2018-12-14T00:11:46.589Z,310
2018-12-14T00:12:53.786Z,310
2018-12-14T00:14:00.979Z,310
2018-12-14T00:15:08.170Z,310
2018-12-14T00:16:15.361Z,310
2018-12-14T00:17:22.563Z,310
2018-12-14T00:18:29.481Z,310
2018-12-14T00:19:36.674Z,310
2018-12-14T00:20:43.867Z,310
2018-12-14T00:21:51.063Z,309
2018-12-14T00:22:58.268Z,310
2018-12-14T00:24:05.463Z,310
2018-12-14T00:25:12.656Z,310
2018-12-14T00:26:19.850Z,310
2018-12-14T00:27:27.042Z,309
2018-12-14T00:28:34.233Z,309
2018-12-14T00:29:41.433Z,310
2018-12-14T00:30:48.625Z,309
2018-12-14T00:31:55.826Z,310
2018-12-14T00:33:02.751Z,310
2018-12-14T00:34:09.944Z,310
2018-12-14T00:35:17.142Z,310
2018-12-14T00:36:24.060Z,310
2018-12-14T00:37:31.250Z,310
2018-12-14T00:38:38.441Z,310
2018-12-14T00:39:45.634Z,310
2018-12-14T00:40:52.557Z,310
2018-12-14T00:41:59.751Z,309
2018-12-14T00:43:06.949Z,309
2018-12-14T00:44:14.141Z,310
2018-12-14T00:45:21.330Z,310
2018-12-14T00:46:28.522Z,310
2018-12-14T00:47:35.503Z,310
2018-12-14T00:48:42.696Z,310
2018-12-14T00:49:49.886Z,310
2018-12-14T00:50:57.079Z,310
2018-12-14T00:52:04.006Z,310
2018-12-14T00:53:10.921Z,309
2018-12-14T00:54:18.115Z,309
2018-12-14T00:55:25.043Z,309
2018-12-14T00:56:32.230Z,309
2018-12-14T00:57:39.426Z,310
2018-12-14T00:58:46.621Z,309
2018-12-14T00:59:53.816Z,309
2018-12-14T01:01:01.006Z,309
2018-12-14T01:02:08.204Z,309
2018-12-14T01:03:15.401Z,309
2018-12-14T01:04:22.595Z,310
2018-12-14T01:05:29.788Z,309
2018-12-14T01:06:36.705Z,309
2018-12-14T01:07:43.901Z,309
2018-12-14T01:08:51.095Z,309
2018-12-14T01:09:58.293Z,309
2018-12-14T01:11:05.487Z,310
2018-12-14T01:12:12.681Z,309
2018-12-14T01:13:19.598Z,310
2018-12-14T01:14:26.796Z,310
2018-12-14T01:15:33.982Z,309
2018-12-14T01:16:40.905Z,310
2018-12-14T01:17:47.832Z,309
2018-12-14T01:18:55.033Z,309
2018-12-14T01:20:02.230Z,309
2018-12-14T01:21:09.427Z,309
2018-12-14T01:22:16.349Z,310
2018-12-14T01:23:23.544Z,309
2018-12-14T01:24:30.464Z,309
2018-12-14T01:25:37.654Z,309
2018-12-14T01:26:44.580Z,309
2018-12-14T01:27:51.777Z,309
2018-12-14T01:28:58.968Z,310
2018-12-14T01:30:06.165Z,309
2018-12-14T01:31:13.075Z,309
2018-12-14T01:32:20.271Z,309
2018-12-14T01:33:27.465Z,309
2018-12-14T01:34:34.658Z,309
2018-12-14T01:35:41.859Z,309
2018-12-14T01:36:49.051Z,309
2018-12-14T01:37:56.243Z,309
2018-12-14T01:39:03.169Z,310
2018-12-14T01:40:10.363Z,309
2018-12-14T01:41:17.282Z,309
2018-12-14T01:42:24.474Z,309
2018-12-14T01:43:31.119Z,309
2018-12-14T01:44:38.043Z,309
2018-12-14T01:45:44.953Z,309
2018-12-14T01:46:52.147Z,309
2018-12-14T01:47:59.362Z,309
2018-12-14T01:49:06.557Z,309
2018-12-14T01:50:13.751Z,310
2018-12-14T01:51:20.678Z,309
2018-12-14T01:52:27.868Z,309
2018-12-14T01:53:35.070Z,309
2018-12-14T01:54:42.270Z,310
2018-12-14T01:55:49.469Z,310
2018-12-14T01:56:56.668Z,309
2018-12-14T01:58:03.862Z,309
2018-12-14T01:59:10.779Z,309
2018-12-14T02:00:17.761Z,309
2018-12-14T02:01:24.943Z,309
2018-12-14T02:02:31.602Z,309
2018-12-14T02:03:38.521Z,309
2018-12-14T02:04:45.447Z,310
2018-12-14T02:05:52.638Z,309
2018-12-14T02:06:59.829Z,309
2018-12-14T02:08:07.027Z,309
2018-12-14T02:09:13.951Z,309
2018-12-14T02:10:21.150Z,310
2018-12-14T02:11:28.339Z,310
2018-12-14T02:12:35.260Z,309
2018-12-14T02:13:42.182Z,310
2018-12-14T02:14:49.381Z,310
2018-12-14T02:15:56.579Z,309
2018-12-14T02:17:03.772Z,309
2018-12-14T02:18:10.963Z,309
2018-12-14T02:19:18.154Z,309
2018-12-14T02:20:25.350Z,309
2018-12-14T02:21:32.547Z,309
2018-12-14T02:22:39.739Z,310
2018-12-14T02:23:46.928Z,310
2018-12-14T02:24:54.121Z,309
2018-12-14T02:26:01.039Z,309
2018-12-14T02:27:08.280Z,309
2018-12-14T02:28:15.210Z,309
2018-12-14T02:29:22.131Z,309
2018-12-14T02:30:28.776Z,310
2018-12-14T02:31:35.970Z,310
2018-12-14T02:32:43.166Z,309
2018-12-14T02:33:50.354Z,309
2018-12-14T02:34:57.281Z,310
2018-12-14T02:36:04.470Z,310
2018-12-14T02:37:11.112Z,310
2018-12-14T02:38:18.307Z,310
2018-12-14T02:39:24.949Z,310
2018-12-14T02:40:32.141Z,310
2018-12-14T02:41:39.333Z,310
2018-12-14T02:42:45.972Z,309
2018-12-14T02:43:52.888Z,310
2018-12-14T02:44:59.820Z,310
2018-12-14T02:46:07.019Z,310
2018-12-14T02:47:14.211Z,310
2018-12-14T02:48:21.152Z,310
2018-12-14T02:49:28.067Z,310
2018-12-14T02:50:35.258Z,310
2018-12-14T02:51:42.189Z,310
2018-12-14T02:52:49.109Z,310
2018-12-14T02:53:56.302Z,310
2018-12-14T02:55:03.494Z,310
2018-12-14T02:56:10.688Z,309
2018-12-14T02:57:17.604Z,310
2018-12-14T02:58:24.527Z,310
2018-12-14T02:59:31.720Z,310
2018-12-14T03:00:38.918Z,310
2018-12-14T03:01:46.110Z,309
2018-12-14T03:02:53.307Z,309
2018-12-14T03:04:00.502Z,310
2018-12-14T03:05:07.697Z,310
2018-12-14T03:06:14.888Z,309
2018-12-14T03:07:21.809Z,309
2018-12-14T03:08:29.013Z,309
2018-12-14T03:09:36.197Z,310
2018-12-14T03:10:43.386Z,310
2018-12-14T03:11:50.304Z,310
2018-12-14T03:12:57.499Z,310
2018-12-14T03:14:04.693Z,310
2018-12-14T03:15:11.878Z,310
2018-12-14T03:16:18.803Z,310
2018-12-14T03:17:26.000Z,309
2018-12-14T03:18:33.188Z,309
2018-12-14T03:19:40.106Z,310
2018-12-14T03:20:47.296Z,309
2018-12-14T03:21:54.215Z,310
2018-12-14T03:23:01.410Z,310
2018-12-14T03:24:08.609Z,310
2018-12-14T03:25:15.804Z,310
2018-12-14T03:26:22.733Z,309
2018-12-14T03:27:29.928Z,310
2018-12-14T03:28:37.125Z,310
2018-12-14T03:29:44.045Z,310
2018-12-14T03:30:51.286Z,310
2018-12-14T03:31:58.484Z,310
2018-12-14T03:33:05.678Z,310
2018-12-14T03:34:12.867Z,310
2018-12-14T03:35:20.056Z,310
2018-12-14T03:36:26.979Z,310
2018-12-14T03:37:34.175Z,309
2018-12-14T03:38:41.361Z,310
2018-12-14T03:39:48.768Z,310
2018-12-14T03:40:55.962Z,310
2018-12-14T03:42:03.154Z,310
2018-12-14T03:43:10.347Z,310
2018-12-14T03:44:17.272Z,310
2018-12-14T03:45:24.467Z,310
2018-12-14T03:46:31.102Z,310
2018-12-14T03:47:38.297Z,310
2018-12-14T03:48:45.489Z,310
2018-12-14T03:49:52.683Z,309
2018-12-14T03:50:59.609Z,310
2018-12-14T03:52:06.262Z,310
2018-12-14T03:53:13.468Z,310
2018-12-14T03:54:20.653Z,310
2018-12-14T03:55:27.570Z,310
2018-12-14T03:56:34.766Z,310
2018-12-14T03:57:41.960Z,309
2018-12-14T03:58:49.150Z,309
2018-12-14T03:59:56.339Z,310
2018-12-14T04:01:03.534Z,309
2018-12-14T04:02:10.462Z,310
2018-12-14T04:03:17.654Z,310
2018-12-14T04:04:24.577Z,310
2018-12-14T04:05:31.765Z,310
2018-12-14T04:06:38.681Z,310
2018-12-14T04:07:45.869Z,310
2018-12-14T04:08:53.062Z,310
2018-12-14T04:09:59.725Z,310
2018-12-14T04:11:06.911Z,310
2018-12-14T04:12:14.205Z,310
2018-12-14T04:13:21.402Z,310
2018-12-14T04:14:28.596Z,310
2018-12-14T04:15:35.522Z,310
2018-12-14T04:16:42.441Z,310
2018-12-14T04:17:49.637Z,310
2018-12-14T04:18:56.832Z,310
2018-12-14T04:20:04.029Z,310
2018-12-14T04:21:11.227Z,310
2018-12-14T04:22:18.419Z,310
2018-12-14T04:23:25.344Z,309
2018-12-14T04:24:32.233Z,309
2018-12-14T04:25:39.426Z,310
2018-12-14T04:26:46.351Z,309
2018-12-14T04:27:53.564Z,310
2018-12-14T04:29:00.759Z,310
2018-12-14T04:30:07.678Z,310
2018-12-14T04:31:14.865Z,310
2018-12-14T04:32:22.055Z,310
2018-12-14T04:33:29.249Z,310
2018-12-14T04:34:36.441Z,310
2018-12-14T04:35:43.634Z,310
2018-12-14T04:36:50.553Z,310
2018-12-14T04:37:57.758Z,310
2018-12-14T04:39:04.676Z,310
2018-12-14T04:40:11.865Z,310
2018-12-14T04:41:18.790Z,310
2018-12-14T04:42:25.980Z,310
2018-12-14T04:43:33.239Z,310
2018-12-14T04:44:40.438Z,310
2018-12-14T04:45:47.632Z,309
2018-12-14T04:46:54.562Z,309
2018-12-14T04:48:01.756Z,310
2018-12-14T04:49:08.675Z,310
2018-12-14T04:50:16.086Z,310
2018-12-14T04:51:23.276Z,310
2018-12-14T04:52:30.200Z,310
2018-12-14T04:53:37.123Z,310
2018-12-14T04:54:44.044Z,310
2018-12-14T04:55:51.241Z,310
2018-12-14T04:56:58.163Z,310
2018-12-14T04:58:05.356Z,310
2018-12-14T04:59:12.554Z,309
2018-12-14T05:00:19.488Z,310
2018-12-14T05:01:26.694Z,310
2018-12-14T05:02:33.908Z,310
2018-12-14T05:03:40.838Z,310
2018-12-14T05:04:48.037Z,310
2018-12-14T05:05:55.238Z,310
2018-12-14T05:07:02.435Z,310
2018-12-14T05:08:09.633Z,309
2018-12-14T05:09:16.551Z,310
2018-12-14T05:10:23.743Z,310
2018-12-14T05:11:30.661Z,310
2018-12-14T05:12:37.584Z,309
2018-12-14T05:13:44.510Z,310
2018-12-14T05:14:51.707Z,310
2018-12-14T05:15:58.900Z,309
2018-12-14T05:17:06.098Z,310
2018-12-14T05:18:13.028Z,310
2018-12-14T05:19:20.230Z,309
2018-12-14T05:20:27.149Z,310
2018-12-14T05:21:34.350Z,310
2018-12-14T05:22:41.267Z,310
2018-12-14T05:23:48.462Z,310
2018-12-14T05:24:55.656Z,310
2018-12-14T05:26:02.855Z,310
2018-12-14T05:27:10.046Z,310
2018-12-14T05:28:17.246Z,310
2018-12-14T05:29:24.442Z,310
2018-12-14T05:30:31.632Z,310
2018-12-14T05:31:38.827Z,310
2018-12-14T05:32:46.024Z,310
2018-12-14T05:33:53.218Z,310
2018-12-14T05:35:00.138Z,310
2018-12-14T05:36:07.331Z,310
2018-12-14T05:37:14.524Z,310
2018-12-14T05:38:21.440Z,310
2018-12-14T05:39:28.642Z,309
2018-12-14T05:40:35.561Z,310
2018-12-14T05:41:42.773Z,310
2018-12-14T05:42:49.672Z,310
2018-12-14T05:43:56.865Z,310
2018-12-14T05:45:03.795Z,310
2018-12-14T05:46:10.992Z,310
2018-12-14T05:47:17.911Z,310
2018-12-14T05:48:25.109Z,310
2018-12-14T05:49:32.030Z,310
2018-12-14T05:50:39.232Z,310
2018-12-14T05:51:46.422Z,309
2018-12-14T05:52:53.615Z,310
2018-12-14T05:54:00.828Z,310
2018-12-14T05:55:08.022Z,310
2018-12-14T05:56:15.218Z,310
2018-12-14T05:57:22.413Z,310
2018-12-14T05:58:29.330Z,310
2018-12-14T05:59:36.533Z,310
2018-12-14T06:00:43.449Z,310
2018-12-14T06:01:50.361Z,310
2018-12-14T06:02:57.557Z,310
2018-12-14T06:04:04.756Z,310
2018-12-14T06:05:11.952Z,310
2018-12-14T06:06:19.184Z,309
2018-12-14T06:07:26.116Z,310
2018-12-14T06:08:33.304Z,310
2018-12-14T06:09:40.500Z,310
2018-12-14T06:10:47.693Z,310
2018-12-14T06:11:54.886Z,310
2018-12-14T06:13:01.810Z,310
2018-12-14T06:14:09.003Z,310
2018-12-14T06:15:15.925Z,310
2018-12-14T06:16:22.860Z,310
2018-12-14T06:17:30.071Z,309
2018-12-14T06:18:37.263Z,310
2018-12-14T06:19:44.455Z,310
2018-12-14T06:20:51.645Z,310
2018-12-14T06:21:58.892Z,310
2018-12-14T06:23:06.095Z,310
2018-12-14T06:24:13.287Z,310
2018-12-14T06:25:20.490Z,310
2018-12-14T06:26:27.684Z,310
2018-12-14T06:27:34.883Z,309
2018-12-14T06:28:41.817Z,310
2018-12-14T06:29:49.011Z,310
2018-12-14T06:30:56.209Z,310
2018-12-14T06:32:03.409Z,309
2018-12-14T06:33:10.059Z,310
2018-12-14T06:34:17.251Z,310
2018-12-14T06:35:24.441Z,310
2018-12-14T06:36:31.636Z,310
2018-12-14T06:37:38.894Z,310
2018-12-14T06:38:46.088Z,310
2018-12-14T06:39:53.286Z,310
2018-12-14T06:41:00.206Z,310
2018-12-14T06:42:07.395Z,310
2018-12-14T06:43:16.595Z,310
2018-12-14T06:44:23.785Z,310
2018-12-14T06:45:30.977Z,310
2018-12-14T06:46:38.175Z,310
2018-12-14T06:47:45.368Z,310
2018-12-14T06:48:52.558Z,310
2018-12-14T06:49:59.484Z,310
2018-12-14T06:51:06.678Z,310
2018-12-14T06:52:13.876Z,310
2018-12-14T06:53:21.072Z,310
2018-12-14T06:54:28.261Z,310
2018-12-14T06:55:35.458Z,310
2018-12-14T06:56:42.655Z,310
2018-12-14T06:57:49.862Z,310
2018-12-14T06:58:57.051Z,310
2018-12-14T07:00:04.251Z,310
2018-12-14T07:01:10.906Z,310
2018-12-14T07:02:17.835Z,310
2018-12-14T07:03:24.751Z,310
2018-12-14T07:04:31.947Z,311
2018-12-14T07:05:38.877Z,311
2018-12-14T07:06:45.793Z,311
2018-12-14T07:07:52.715Z,310
2018-12-14T07:08:59.912Z,311
2018-12-14T07:10:07.107Z,310
2018-12-14T07:11:14.304Z,310
2018-12-14T07:12:21.506Z,310
2018-12-14T07:13:28.709Z,310
2018-12-14T07:14:35.900Z,310
2018-12-14T07:15:43.087Z,310
2018-12-14T07:16:50.283Z,310
2018-12-14T07:17:56.935Z,310
2018-12-14T07:19:04.126Z,310
2018-12-14T07:20:11.050Z,310
2018-12-14T07:21:17.962Z,310
2018-12-14T07:22:25.159Z,310
2018-12-14T07:23:32.351Z,310
2018-12-14T07:24:39.540Z,310
2018-12-14T07:25:46.737Z,310
2018-12-14T07:26:53.939Z,310
2018-12-14T07:28:00.854Z,310
2018-12-14T07:29:08.055Z,311
2018-12-14T07:30:14.977Z,310
2018-12-14T07:31:22.173Z,310
2018-12-14T07:32:29.366Z,310
2018-12-14T07:33:36.556Z,310
2018-12-14T07:34:43.750Z,310
2018-12-14T07:35:50.947Z,310
2018-12-14T07:36:57.867Z,310
2018-12-14T07:38:04.787Z,310
2018-12-14T07:39:11.158Z,310
2018-12-14T07:40:18.350Z,310
2018-12-14T07:41:25.543Z,310
2018-12-14T07:42:32.743Z,310
2018-12-14T07:43:39.660Z,310
2018-12-14T07:44:47.325Z,310
2018-12-14T07:45:54.823Z,311
2018-12-14T07:47:01.742Z,310
2018-12-14T07:48:08.966Z,310
2018-12-14T07:49:15.886Z,310
2018-12-14T07:50:23.077Z,310
2018-12-14T07:51:30.269Z,310
2018-12-14T07:52:37.190Z,310
2018-12-14T07:53:44.378Z,310
2018-12-14T07:54:51.304Z,310
2018-12-14T07:55:58.499Z,310
2018-12-14T07:57:05.696Z,310
2018-12-14T07:58:12.617Z,309
2018-12-14T07:59:19.543Z,310
2018-12-14T08:00:26.735Z,310
2018-12-14T08:01:33.925Z,310
2018-12-14T08:02:41.124Z,310
2018-12-14T08:03:48.322Z,310
2018-12-14T08:04:55.517Z,310
2018-12-14T08:06:02.715Z,310
2018-12-14T08:07:09.908Z,310
2018-12-14T08:08:17.142Z,310
2018-12-14T08:09:24.336Z,310
2018-12-14T08:10:31.532Z,310
2018-12-14T08:11:38.723Z,310
2018-12-14T08:12:45.920Z,310
2018-12-14T08:13:53.116Z,310
2018-12-14T08:15:00.332Z,310
2018-12-14T08:16:07.527Z,310
2018-12-14T08:17:14.189Z,309
2018-12-14T08:18:21.382Z,310
2018-12-14T08:19:28.573Z,310
2018-12-14T08:20:35.772Z,310
2018-12-14T08:21:42.691Z,309
2018-12-14T08:22:49.888Z,310
2018-12-14T08:23:57.087Z,309
2018-12-14T08:25:04.009Z,310
2018-12-14T08:26:10.930Z,310
2018-12-14T08:27:17.883Z,309
2018-12-14T08:28:25.082Z,310
2018-12-14T08:29:32.278Z,309
2018-12-14T08:30:39.204Z,310
2018-12-14T08:31:45.856Z,309
2018-12-14T08:32:52.771Z,309
2018-12-14T08:33:59.694Z,309
2018-12-14T08:35:06.897Z,309
2018-12-14T08:36:14.095Z,309
2018-12-14T08:37:21.293Z,309
2018-12-14T08:38:28.483Z,309
2018-12-14T08:39:35.700Z,309
2018-12-14T08:40:42.900Z,309
2018-12-14T08:41:49.826Z,309
2018-12-14T08:42:57.024Z,309
2018-12-14T08:44:04.223Z,309
2018-12-14T08:45:11.167Z,309
2018-12-14T08:46:18.354Z,309
2018-12-14T08:47:26.641Z,309
2018-12-14T08:48:33.832Z,309
2018-12-14T08:49:40.754Z,309
2018-12-14T08:50:47.686Z,309
2018-12-14T08:51:54.610Z,308
2018-12-14T08:53:01.809Z,309
2018-12-14T08:54:08.743Z,309
2018-12-14T08:55:15.674Z,308
2018-12-14T08:56:22.869Z,309
2018-12-14T08:57:30.118Z,308
2018-12-14T08:58:37.314Z,308
2018-12-14T08:59:44.297Z,308
2018-12-14T09:00:51.492Z,309
2018-12-14T09:01:58.748Z,309
2018-12-14T09:03:05.945Z,309
2018-12-14T09:04:15.619Z,308
2018-12-14T09:05:22.863Z,308
2018-12-14T09:06:29.792Z,308
2018-12-14T09:07:36.995Z,308
2018-12-14T09:08:44.189Z,307
2018-12-14T09:09:50.840Z,308
2018-12-14T09:10:57.770Z,308
2018-12-14T09:12:04.691Z,307
2018-12-14T09:13:11.894Z,308
2018-12-14T09:14:18.821Z,308
2018-12-14T09:15:26.020Z,307
2018-12-14T09:16:32.946Z,307
2018-12-14T09:17:40.155Z,307
2018-12-14T09:18:47.083Z,307
2018-12-14T09:19:54.280Z,308
2018-12-14T09:21:01.922Z,307
2018-12-14T09:22:09.118Z,307
2018-12-14T09:23:16.312Z,307
2018-12-14T09:24:23.234Z,307
2018-12-14T09:25:30.427Z,307
2018-12-14T09:26:37.625Z,307
2018-12-14T09:27:44.618Z,307
2018-12-14T09:28:51.822Z,307
2018-12-14T09:29:58.739Z,307
2018-12-14T09:31:05.384Z,308
2018-12-14T09:32:12.308Z,307
2018-12-14T09:33:19.492Z,307
2018-12-14T09:34:26.680Z,308
2018-12-14T09:35:33.874Z,307
2018-12-14T09:36:41.067Z,307
2018-12-14T09:37:48.260Z,307
2018-12-14T09:38:55.459Z,307
2018-12-14T09:40:02.648Z,307
2018-12-14T09:41:16.000Z,307
2018-12-14T09:42:23.302Z,306
2018-12-14T09:43:30.225Z,306
2018-12-14T09:44:37.417Z,306
2018-12-14T09:45:44.613Z,306
2018-12-14T09:46:51.812Z,306
2018-12-14T09:48:13.388Z,307
2018-12-14T09:49:20.309Z,306
2018-12-14T09:50:27.517Z,306
2018-12-14T09:51:35.808Z,306
2018-12-14T09:52:42.999Z,306
2018-12-14T09:53:49.920Z,307
2018-12-14T09:54:57.114Z,306
2018-12-14T09:56:04.108Z,306
2018-12-14T09:57:11.298Z,306
2018-12-14T09:58:18.494Z,306
2018-12-14T09:59:25.159Z,306
2018-12-14T10:00:32.357Z,306
2018-12-14T10:01:39.285Z,306
2018-12-14T10:02:46.473Z,306
2018-12-14T10:03:53.399Z,306
2018-12-14T10:05:00.595Z,306
2018-12-14T10:06:07.787Z,305
2018-12-14T10:07:14.981Z,305
2018-12-14T10:08:21.942Z,305
2018-12-14T10:09:28.866Z,306
2018-12-14T10:10:36.064Z,306
2018-12-14T10:11:43.260Z,306
2018-12-14T10:12:50.459Z,306
2018-12-14T10:14:01.857Z,306
2018-12-14T10:15:09.052Z,306
2018-12-14T10:16:15.968Z,306
2018-12-14T10:17:22.890Z,306
2018-12-14T10:18:29.816Z,306
2018-12-14T10:19:36.737Z,306
2018-12-14T10:20:43.664Z,306
2018-12-14T10:21:50.905Z,306
2018-12-14T10:22:58.098Z,306
2018-12-14T10:24:05.020Z,306
2018-12-14T10:25:12.217Z,306
2018-12-14T10:26:19.419Z,306
2018-12-14T10:27:26.348Z,306
2018-12-14T10:28:33.542Z,306
2018-12-14T10:29:40.188Z,306
2018-12-14T10:30:47.112Z,305
2018-12-14T10:31:54.305Z,306
2018-12-14T10:33:01.223Z,306
2018-12-14T10:34:08.415Z,306
2018-12-14T10:35:15.614Z,306
2018-12-14T10:36:22.536Z,306
2018-12-14T10:37:29.736Z,306
2018-12-14T10:38:36.655Z,306
2018-12-14T10:39:43.848Z,306
2018-12-14T10:40:50.771Z,306
2018-12-14T10:41:57.696Z,305
2018-12-14T10:43:04.889Z,306
2018-12-14T10:44:12.079Z,306
2018-12-14T10:45:18.997Z,306
2018-12-14T10:46:25.915Z,305
2018-12-14T10:47:32.554Z,305
2018-12-14T10:48:39.746Z,306
2018-12-14T10:49:46.934Z,305
2018-12-14T10:50:53.927Z,305
2018-12-14T10:52:01.121Z,305
2018-12-14T10:53:08.047Z,305
2018-12-14T10:54:15.253Z,305
2018-12-14T10:55:22.443Z,306
2018-12-14T10:56:29.638Z,306
2018-12-14T10:57:36.564Z,305
2018-12-14T10:58:43.759Z,305
2018-12-14T10:59:50.952Z,305
2018-12-14T11:00:58.151Z,305
2018-12-14T11:02:05.349Z,304
2018-12-14T11:03:12.543Z,305
2018-12-14T11:04:19.739Z,305
2018-12-14T11:05:26.937Z,305
2018-12-14T11:06:33.868Z,305
2018-12-14T11:07:40.788Z,304
2018-12-14T11:08:47.983Z,305
2018-12-14T11:09:55.175Z,306
2018-12-14T11:11:02.370Z,306
2018-12-14T11:12:09.566Z,306
2018-12-14T11:13:16.764Z,306
2018-12-14T11:14:23.685Z,306
2018-12-14T11:15:31.360Z,305
2018-12-14T11:16:38.281Z,306
2018-12-14T11:17:45.478Z,305
2018-12-14T11:18:52.140Z,305
2018-12-14T11:19:59.326Z,305
2018-12-14T11:21:06.521Z,305
2018-12-14T11:22:13.716Z,306
2018-12-14T11:23:20.911Z,306
2018-12-14T11:24:28.104Z,306
2018-12-14T11:25:35.299Z,306
2018-12-14T11:26:42.212Z,306
2018-12-14T11:27:49.410Z,305
2018-12-14T11:28:56.622Z,305
2018-12-14T11:30:03.819Z,305
2018-12-14T11:31:11.009Z,305
2018-12-14T11:32:18.208Z,305
2018-12-14T11:33:25.420Z,305
2018-12-14T11:34:32.613Z,305
2018-12-14T11:35:39.808Z,305
2018-12-14T11:36:47.003Z,305
2018-12-14T11:37:54.201Z,305
2018-12-14T11:39:01.117Z,305
2018-12-14T11:40:07.765Z,305
2018-12-14T11:41:19.454Z,305
2018-12-14T11:42:26.383Z,305
2018-12-14T11:43:33.578Z,305
2018-12-14T11:44:40.774Z,304
2018-12-14T11:45:47.973Z,305
2018-12-14T11:46:55.171Z,305
2018-12-14T11:48:02.366Z,305
2018-12-14T11:49:09.557Z,305
2018-12-14T11:50:16.766Z,306
2018-12-14T11:51:23.963Z,305
2018-12-14T11:52:31.155Z,305
2018-12-14T11:53:38.355Z,305
2018-12-14T11:54:45.552Z,305
2018-12-14T11:55:52.480Z,306
2018-12-14T11:56:59.399Z,305
2018-12-14T11:58:06.603Z,305
2018-12-14T11:59:13.802Z,305
2018-12-14T12:00:21.000Z,305
2018-12-14T12:01:28.202Z,305
2018-12-14T12:02:35.410Z,305
2018-12-14T12:03:43.680Z,305
2018-12-14T12:04:50.911Z,305
2018-12-14T12:05:57.835Z,306
2018-12-14T12:07:04.784Z,306
2018-12-14T12:08:11.982Z,305
2018-12-14T12:09:18.923Z,306
2018-12-14T12:10:26.122Z,306
2018-12-14T12:11:33.318Z,306
2018-12-14T12:12:40.512Z,306
2018-12-14T12:13:47.716Z,306
2018-12-14T12:14:54.911Z,305
2018-12-14T12:16:01.869Z,305
2018-12-14T12:17:09.042Z,305
2018-12-14T12:18:16.234Z,306
2018-12-14T12:19:23.154Z,305
2018-12-14T12:20:30.342Z,306
2018-12-14T12:21:37.530Z,305
2018-12-14T12:22:44.727Z,305
2018-12-14T12:26:10.868Z,305
2018-12-14T12:27:19.428Z,305
2018-12-14T12:28:26.348Z,305
2018-12-14T12:29:33.272Z,305
2018-12-14T12:30:40.467Z,305
2018-12-14T12:31:47.662Z,305
2018-12-14T12:37:39.770Z,306
2018-12-14T12:38:47.018Z,305
2018-12-14T12:39:54.234Z,306
2018-12-14T12:41:01.436Z,305
2018-12-14T12:42:08.633Z,305
2018-12-14T12:43:15.831Z,305
2018-12-14T12:44:23.034Z,305
2018-12-14T12:45:30.231Z,305
2018-12-14T12:46:37.144Z,305
2018-12-14T12:47:44.346Z,305
2018-12-14T12:48:51.552Z,305
2018-12-14T12:49:58.203Z,306
2018-12-14T12:51:05.408Z,305
2018-12-14T12:52:12.060Z,305
2018-12-14T12:53:19.255Z,305
2018-12-14T12:54:26.189Z,305
2018-12-14T12:55:33.391Z,305
2018-12-14T12:56:40.329Z,305
2018-12-14T12:57:47.530Z,305
2018-12-14T12:58:55.496Z,305
2018-12-14T13:00:02.694Z,305
2018-12-14T13:01:09.891Z,305
2018-12-14T13:02:17.087Z,305
2018-12-14T13:03:24.288Z,305
2018-12-14T13:04:31.481Z,305
2018-12-14T13:05:38.409Z,305
2018-12-14T13:06:45.332Z,305
2018-12-14T13:07:52.574Z,306
2018-12-14T13:08:59.767Z,305
2018-12-14T13:10:06.696Z,305
2018-12-14T13:11:13.889Z,306
2018-12-14T13:12:22.315Z,305
2018-12-14T13:13:29.522Z,305
2018-12-14T13:14:41.074Z,305
2018-12-14T13:15:48.006Z,305
2018-12-14T13:16:54.930Z,305
2018-12-14T13:18:02.121Z,305
2018-12-14T13:19:09.313Z,305
2018-12-14T13:20:16.518Z,305
2018-12-14T13:21:23.435Z,305
2018-12-14T13:22:30.655Z,305
2018-12-14T13:23:37.846Z,305
2018-12-14T13:24:45.047Z,306
2018-12-14T13:25:51.973Z,306
2018-12-14T13:26:59.171Z,306
2018-12-14T13:28:06.090Z,306
2018-12-14T13:29:13.007Z,306
2018-12-14T13:30:19.936Z,306
2018-12-14T13:31:27.149Z,306
2018-12-14T13:32:34.064Z,306
2018-12-14T13:33:41.262Z,306
2018-12-14T13:34:48.187Z,306
2018-12-14T13:35:55.381Z,306
2018-12-14T13:37:02.574Z,306
2018-12-14T13:38:09.772Z,306
2018-12-14T13:39:16.970Z,306
2018-12-14T13:40:24.191Z,306
2018-12-14T13:41:31.392Z,306
2018-12-14T13:42:38.602Z,306
2018-12-14T13:43:45.810Z,306
2018-12-14T13:44:53.000Z,307
2018-12-14T13:46:00.205Z,306
2018-12-14T13:47:07.405Z,306
2018-12-14T13:48:14.599Z,306
2018-12-14T13:49:21.813Z,306
2018-12-14T13:50:28.724Z,307
2018-12-14T13:51:35.928Z,306
2018-12-14T13:52:42.882Z,306
2018-12-14T13:53:50.076Z,306
2018-12-14T13:54:56.998Z,306
2018-12-14T13:56:04.190Z,307
2018-12-14T13:57:11.390Z,306
2018-12-14T13:58:18.590Z,306
2018-12-14T13:59:25.787Z,307
2018-12-14T14:00:32.980Z,307
2018-12-14T14:01:39.903Z,307
2018-12-14T14:02:47.094Z,307
2018-12-14T14:03:54.290Z,306
2018-12-14T14:05:01.489Z,307
2018-12-14T14:06:08.682Z,307
2018-12-14T14:07:15.878Z,307
2018-12-14T14:08:23.070Z,307
2018-12-14T14:09:30.279Z,307
2018-12-14T14:10:37.479Z,307
2018-12-14T14:11:44.410Z,307
2018-12-14T14:12:51.615Z,307
2018-12-14T14:13:58.812Z,307
2018-12-14T14:15:06.015Z,307
2018-12-14T14:16:13.210Z,307
2018-12-14T14:17:20.415Z,307
2018-12-14T14:18:27.339Z,307
2018-12-14T14:19:34.536Z,307
2018-12-14T14:20:41.739Z,308
2018-12-14T14:21:48.682Z,307
2018-12-14T14:22:55.879Z,307
2018-12-14T14:24:03.115Z,307
2018-12-14T14:25:10.513Z,308
2018-12-14T14:26:24.307Z,307
2018-12-14T14:27:31.302Z,308
2018-12-14T14:28:38.500Z,307
2018-12-14T14:29:45.710Z,307
2018-12-14T14:30:52.644Z,308
2018-12-14T14:31:59.844Z,308
2018-12-14T14:33:07.050Z,308
2018-12-14T14:34:14.267Z,308
2018-12-14T14:35:21.466Z,308
2018-12-14T14:36:28.666Z,308
2018-12-14T14:37:35.866Z,307
2018-12-14T14:38:43.070Z,308
2018-12-14T14:39:50.015Z,308
2018-12-14T14:40:57.200Z,308
2018-12-14T14:42:04.409Z,308
2018-12-14T14:43:11.606Z,308
2018-12-14T14:44:18.805Z,308
2018-12-14T14:45:26.001Z,308
2018-12-14T14:46:33.204Z,308
2018-12-14T14:47:40.395Z,308
2018-12-14T14:48:47.598Z,308
2018-12-14T14:49:54.795Z,308
2018-12-14T14:51:01.995Z,308
2018-12-14T14:52:08.909Z,308
2018-12-14T14:53:16.100Z,309
2018-12-14T14:54:23.297Z,308
2018-12-14T14:55:30.217Z,308
2018-12-14T14:56:37.135Z,308
2018-12-14T14:57:43.791Z,309
2018-12-14T14:58:50.986Z,308
2018-12-14T14:59:58.176Z,308
2018-12-14T15:01:05.380Z,308
2018-12-14T15:02:12.305Z,309
2018-12-14T15:03:19.223Z,308
2018-12-14T15:04:26.424Z,309
2018-12-14T15:05:33.628Z,309
2018-12-14T15:06:40.839Z,308
2018-12-14T15:07:47.551Z,308
2018-12-14T15:08:54.763Z,308
2018-12-14T15:10:01.962Z,308
2018-12-14T15:11:09.162Z,309
2018-12-14T15:12:16.361Z,308
2018-12-14T15:13:23.291Z,308
2018-12-14T15:14:30.486Z,309
2018-12-14T15:15:37.688Z,308
2018-12-14T15:16:44.886Z,309
2018-12-14T15:17:52.083Z,309
2018-12-14T15:18:58.732Z,309
2018-12-14T15:20:05.928Z,309
2018-12-14T15:21:12.875Z,308
2018-12-14T15:22:19.523Z,309
2018-12-14T15:23:26.718Z,309
2018-12-14T15:24:33.915Z,309
2018-12-14T15:25:41.122Z,309
2018-12-14T15:26:48.043Z,308
2018-12-14T15:27:55.235Z,309
2018-12-14T15:29:02.431Z,309
2018-12-14T15:30:09.349Z,309
2018-12-14T15:31:16.271Z,309
2018-12-14T15:32:23.460Z,309